createdAt,value
2022-08-22T00:09:40.904Z,15.90
2022-08-22T00:16:38.858Z,15.70
2022-08-22T00:22:57.503Z,15.60
2022-08-22T00:29:13.655Z,15.60
2022-08-22T00:35:43.016Z,15.50
2022-08-22T00:42:31.596Z,15.40
2022-08-22T00:49:31.724Z,15.20
2022-08-22T00:55:58.257Z,15.00
2022-08-22T01:02:41.629Z,14.90
2022-08-22T01:09:23.035Z,14.80
2022-08-22T01:15:30.538Z,14.80
2022-08-22T01:22:12.959Z,14.70
2022-08-22T01:28:32.800Z,14.70
2022-08-22T01:35:05.066Z,14.60
2022-08-22T01:42:03.418Z,14.50
2022-08-22T01:48:16.390Z,14.50
2022-08-22T01:54:37.814Z,14.40
2022-08-22T02:00:57.341Z,14.30
2022-08-22T02:07:32.219Z,14.20
2022-08-22T02:14:00.206Z,14.10
2022-08-22T02:20:28.747Z,14.00
2022-08-22T02:27:06.243Z,14.00
2022-08-22T02:33:21.450Z,13.90
2022-08-22T02:39:36.879Z,13.90
2022-08-22T02:46:01.796Z,13.90
2022-08-22T02:52:26.343Z,13.90
2022-08-22T02:58:49.608Z,13.80
2022-08-22T03:04:59.920Z,13.80
2022-08-22T03:11:17.144Z,13.70
2022-08-22T03:18:03.977Z,13.50
2022-08-22T03:24:25.582Z,13.50
2022-08-22T03:31:13.352Z,13.40
2022-08-22T03:37:15.212Z,13.40
2022-08-22T03:43:57.046Z,13.30
2022-08-22T03:50:23.641Z,13.20
2022-08-22T03:56:42.270Z,13.10
2022-08-22T04:03:35.366Z,13.00
2022-08-22T04:09:59.891Z,12.90
2022-08-22T04:16:26.521Z,13.00
2022-08-22T04:22:49.380Z,13.00
2022-08-22T04:29:02.833Z,13.00
2022-08-22T04:35:25.829Z,13.00
2022-08-22T04:41:38.661Z,12.90
2022-08-22T04:48:15.966Z,12.90
2022-08-22T04:54:42.504Z,12.90
2022-08-22T05:01:06.596Z,13.00
2022-08-22T05:07:35.992Z,13.10
2022-08-22T05:13:53.124Z,13.30
2022-08-22T05:20:02.532Z,13.40
2022-08-22T05:26:07.589Z,13.60
2022-08-22T05:32:29.108Z,13.80
2022-08-22T05:38:38.130Z,14.00
2022-08-22T05:44:40.311Z,14.10
2022-08-22T05:50:57.193Z,14.30
2022-08-22T05:57:30.282Z,14.50
2022-08-22T06:04:05.738Z,14.80
2022-08-22T06:10:28.066Z,15.00
2022-08-22T06:16:51.838Z,15.20
2022-08-22T06:22:59.511Z,15.50
2022-08-22T06:29:03.316Z,15.70
2022-08-22T06:35:20.484Z,16.00
2022-08-22T06:41:25.918Z,16.30
2022-08-22T06:47:49.887Z,16.60
2022-08-22T06:54:00.297Z,17.00
2022-08-22T07:00:12.039Z,17.90
2022-08-22T07:06:22.951Z,20.70
2022-08-22T07:12:36.846Z,22.10
2022-08-22T07:18:50.568Z,21.90
2022-08-22T07:25:12.565Z,20.90
2022-08-22T07:31:33.485Z,20.10
2022-08-22T07:37:57.062Z,20.10
2022-08-22T07:44:18.952Z,20.30
2022-08-22T07:50:30.390Z,20.20
2022-08-22T07:56:52.220Z,20.60
2022-08-22T08:03:04.635Z,21.00
2022-08-22T08:09:15.012Z,21.10
2022-08-22T08:15:24.208Z,21.50
2022-08-22T08:21:53.545Z,22.00
2022-08-22T08:28:16.597Z,22.50
2022-08-22T08:34:25.801Z,23.10
2022-08-22T08:40:33.507Z,23.70
2022-08-22T08:47:20.136Z,23.80
2022-08-22T08:53:51.107Z,24.30
2022-08-22T09:00:18.496Z,24.80
2022-08-22T09:07:19.143Z,25.40
2022-08-22T09:14:07.145Z,25.70
2022-08-22T09:20:30.672Z,26.00
2022-08-22T09:26:51.952Z,26.40
2022-08-22T09:33:06.317Z,27.10
2022-08-22T09:39:44.765Z,27.70
2022-08-22T09:46:19.094Z,28.30
2022-08-22T09:52:44.426Z,28.60
2022-08-22T09:59:49.140Z,28.90
2022-08-22T10:06:09.214Z,29.90
2022-08-22T10:12:19.333Z,30.80
2022-08-22T10:19:02.215Z,30.60
2022-08-22T10:25:41.618Z,31.10
2022-08-22T10:31:59.554Z,32.00
2022-08-22T10:38:25.114Z,33.00
2022-08-22T10:44:47.580Z,33.50
2022-08-22T10:51:28.699Z,33.40
2022-08-22T10:57:36.818Z,34.00
2022-08-22T11:03:56.755Z,34.90
2022-08-22T11:10:14.587Z,35.80
2022-08-22T11:16:22.311Z,35.30
2022-08-22T11:23:00.545Z,34.10
2022-08-22T11:29:33.671Z,35.30
2022-08-22T11:35:55.984Z,36.90
2022-08-22T11:42:21.965Z,37.50
2022-08-22T11:48:28.645Z,35.80
2022-08-22T11:55:08.378Z,35.30
2022-08-22T12:01:18.750Z,37.30
2022-08-22T12:07:35.557Z,38.00
2022-08-22T12:14:20.036Z,36.80
2022-08-22T12:20:45.542Z,38.00
2022-08-22T12:27:18.408Z,37.40
2022-08-22T12:33:50.419Z,36.40
2022-08-22T12:40:16.766Z,37.20
2022-08-22T12:46:36.740Z,36.00
2022-08-22T12:53:35.600Z,37.00
2022-08-22T12:59:49.252Z,38.30
2022-08-22T13:05:57.253Z,39.10
2022-08-22T13:12:32.043Z,37.70
2022-08-22T13:18:53.423Z,38.10
2022-08-22T13:25:25.876Z,39.60
2022-08-22T13:31:42.212Z,39.00
2022-08-22T13:37:50.131Z,40.00
2022-08-22T13:44:16.253Z,39.60
2022-08-22T13:50:24.628Z,40.10
2022-08-22T13:56:47.683Z,39.70
2022-08-22T14:03:15.868Z,40.80
2022-08-22T14:09:53.014Z,39.90
2022-08-22T14:16:10.423Z,40.40
2022-08-22T14:22:20.793Z,39.70
2022-08-22T14:28:38.385Z,40.30
2022-08-22T14:34:45.458Z,41.40
2022-08-22T14:41:01.911Z,39.60
2022-08-22T14:47:54.073Z,39.10
2022-08-22T14:53:38.046Z,40.80
2022-08-22T14:59:50.363Z,41.80
2022-08-22T15:06:06.710Z,42.30
2022-08-22T15:12:34.899Z,41.50
2022-08-22T15:18:37.253Z,41.90
2022-08-22T15:25:05.713Z,41.10
2022-08-22T15:31:18.868Z,39.90
2022-08-22T15:37:21.625Z,40.50
2022-08-22T15:43:35.109Z,41.10
2022-08-22T15:49:51.090Z,40.20
2022-08-22T15:56:11.013Z,37.00
2022-08-22T16:02:35.636Z,34.50
2022-08-22T16:08:48.731Z,32.90
2022-08-22T16:14:52.472Z,33.80
2022-08-22T16:20:55.517Z,34.80
2022-08-22T16:26:57.817Z,36.10
2022-08-22T16:33:00.376Z,37.70
2022-08-22T16:39:22.424Z,36.80
2022-08-22T16:45:36.655Z,36.80
2022-08-22T16:52:23.323Z,37.80
2022-08-22T16:58:59.192Z,38.50
2022-08-22T17:05:45.581Z,37.90
2022-08-22T17:12:57.286Z,38.00
2022-08-22T17:19:54.463Z,38.00
2022-08-22T17:26:17.780Z,37.30
2022-08-22T17:32:37.224Z,36.60
2022-08-22T17:39:42.163Z,34.90
2022-08-22T17:46:22.826Z,32.50
2022-08-22T17:52:47.428Z,31.70
2022-08-22T17:59:11.979Z,30.40
2022-08-22T18:05:31.482Z,28.90
2022-08-22T18:12:04.961Z,27.60
2022-08-22T18:18:46.695Z,26.70
2022-08-22T18:25:12.618Z,25.90
2022-08-22T18:31:45.993Z,25.30
2022-08-22T18:37:58.007Z,24.80
2022-08-22T18:44:08.788Z,24.40
2022-08-22T18:50:34.698Z,24.10
2022-08-22T18:56:58.472Z,23.80
2022-08-22T19:04:00.283Z,23.60
2022-08-22T19:10:48.899Z,23.50
2022-08-22T19:16:59.796Z,23.30
2022-08-22T19:23:32.782Z,23.10
2022-08-22T19:29:34.901Z,22.90
2022-08-22T19:35:52.073Z,22.80
2022-08-22T19:41:57.967Z,22.60
2022-08-22T19:48:14.110Z,22.50
2022-08-22T19:54:23.666Z,22.40
2022-08-22T20:00:54.654Z,22.20
2022-08-22T20:07:29.206Z,22.20
2022-08-22T20:13:35.518Z,22.10
2022-08-22T20:19:38.900Z,22.00
2022-08-22T20:25:50.651Z,21.90
2022-08-22T20:31:58.517Z,21.80
2022-08-22T20:38:07.512Z,21.70
2022-08-22T20:44:37.695Z,21.60
2022-08-22T20:50:42.180Z,21.50
2022-08-22T20:57:10.375Z,21.30
2022-08-22T21:03:27.272Z,21.20
2022-08-22T21:09:48.552Z,21.10
2022-08-22T21:15:59.220Z,21.10
2022-08-22T21:22:14.476Z,21.10
2022-08-22T21:28:36.806Z,21.00
2022-08-22T21:34:46.481Z,20.90
2022-08-22T21:40:48.579Z,20.80
2022-08-22T21:46:50.740Z,20.80
2022-08-22T21:53:24.996Z,20.70
2022-08-22T21:59:43.197Z,20.60
2022-08-22T22:06:01.825Z,20.50
2022-08-22T22:12:04.308Z,20.40
2022-08-22T22:18:06.873Z,20.30
2022-08-22T22:24:09.834Z,20.30
2022-08-22T22:30:14.573Z,20.30
2022-08-22T22:36:25.241Z,20.30
2022-08-22T22:42:27.522Z,20.30
2022-08-22T22:48:29.663Z,20.20
2022-08-22T22:54:32.252Z,20.10
2022-08-22T23:00:36.819Z,20.10
2022-08-22T23:06:38.780Z,20.10
2022-08-22T23:12:40.943Z,20.00
2022-08-22T23:18:43.592Z,19.90
2022-08-22T23:24:46.001Z,19.90
2022-08-22T23:30:47.966Z,19.90
2022-08-22T23:36:54.410Z,20.00
2022-08-22T23:42:57.024Z,20.00
2022-08-22T23:48:59.919Z,19.90
2022-08-22T23:55:01.920Z,20.00
